Latest Weather Observations for Darwin Airport

IDD60801

Issued at 11:01 am CST Sunday 4 December 2016 (issued every 30 minutes, with the page automatically refreshed every 10 minutes)

About weather observations | Map of weather stations | Latest weather observations for NT | Other Formats
Station Details ID: 014015 Name: DARWIN AIRPORT Lat: -12.42 Lon: 130.89 Height: 30.4 m
Data from the previous 72 hours. | See also: Recent months at Darwin Airport
Date/Time
CST
Temp
°C
App
Temp
°C
Dew
Point
°C
Rel
Hum
%
Delta-T
°C
Wind Press
QNH
hPa
Press
MSL
hPa
Rain since
9am
mm
Dir  Spd
km/h
Gust
km/h
Spd
kts
Gust
kts
04/10:30am 31.7 34.6 21.8 55 6.7 ENE 9 20 5 11 1010.5 1010.2 0.0
04/10:00am 31.3 34.2 21.7 56 6.5 E 9 17 5 9 1010.7 1010.4 0.0
04/09:30am 31.1 34.4 23.9 65 5.0 E 13 22 7 12 1010.8 1010.5 0.0
04/09:00am 30.2 33.9 24.5 71 4.0 SE 13 19 7 10 1010.9 1010.6 0.0
04/08:30am 29.1 33.1 24.4 76 3.3 ESE 11 15 6 8 1010.9 1010.6 0.0
04/08:00am 28.1 31.8 24.5 81 2.5 SE 13 15 7 8 1010.9 1010.6 0.0
04/07:30am 27.5 31.4 24.2 82 2.3 ESE 11 15 6 8 1010.8 1010.5 0.0
04/07:00am 26.6 30.8 24.7 89 1.3 SE 11 15 6 8 1010.6 1010.3 0.0
04/06:30am 26.0 30.9 24.6 92 1.0 SSE 7 9 4 5 1010.2 1009.9 0.0
04/06:00am 25.9 30.9 24.5 92 1.0 SE 6 7 3 4 1009.7 1009.4 0.0
04/05:30am 25.9 30.7 24.5 92 1.0 SE 7 7 4 4 1009.3 1009.0 0.0
04/05:00am 25.9 31.0 24.9 94 0.7 SE 7 9 4 5 1008.9 1008.6 0.0
04/04:30am 26.1 30.9 25.1 94 0.7 SSE 9 11 5 6 1008.7 1008.4 0.0
04/04:00am 26.3 31.2 25.2 94 0.8 SSE 9 13 5 7 1008.5 1008.2 0.0
04/03:30am 26.4 31.3 25.3 94 0.8 SSE 9 11 5 6 1008.4 1008.1 0.0
04/03:00am 26.5 31.9 25.4 94 0.8 SSE 7 9 4 5 1008.4 1008.1 0.0
04/02:30am 26.6 32.1 25.6 94 0.7 SSE 7 11 4 6 1008.5 1008.2 0.0
04/02:00am 26.9 32.7 25.8 94 0.8 SE 6 7 3 4 1008.7 1008.4 0.0
04/01:30am 27.2 32.6 25.5 90 1.2 SSE 7 9 4 5 1009.3 1009.0 0.0
04/01:00am 27.1 32.8 25.0 88 1.5 SSE 4 6 2 3 1009.5 1009.2 0.0
04/12:30am 26.7 33.0 25.3 92 1.0 SE 2 4 1 2 1010.0 1009.7 0.0
04/12:00am 26.3 32.8 25.0 92 0.9 CALM 0 0 0 0 1010.4 1010.1 0.0
 
Date/Time
CST
Temp
°C
App
Temp
°C
Dew
Point
°C
Rel
Hum
%
Delta-T
°C
Wind Press
QNH
hPa
Press
MSL
hPa
Rain since
9am
mm
Dir  Spd
km/h
Gust
km/h
Spd
kts
Gust
kts
03/11:30pm 26.5 32.7 25.2 92 0.9 NW 2 4 1 2 1010.6 1010.3 0.0
03/11:00pm 26.7 33.0 25.3 92 1.0 NNW 2 4 1 2 1010.8 1010.5 0.0
03/10:30pm 27.0 32.8 25.1 89 1.3 NW 4 6 2 3 1010.9 1010.6 0.0
03/10:00pm 27.6 33.8 25.2 87 1.7 W 2 4 1 2 1010.9 1010.6 0.0
03/09:30pm 28.5 33.9 24.5 79 2.8 W 4 6 2 3 1010.7 1010.4 0.0
03/09:00pm 28.7 33.6 24.7 79 2.8 WNW 7 11 4 6 1010.4 1010.1 0.0
03/08:30pm 29.1 33.4 24.2 75 3.4 NW 9 11 5 6 1010.1 1009.8 0.0
03/08:00pm 29.1 33.9 24.4 76 3.3 NW 7 11 4 6 1009.8 1009.5 0.0
03/07:30pm 29.0 33.9 24.3 76 3.3 NW 6 9 3 5 1009.5 1009.2 0.0
03/07:00pm 29.2 33.9 24.3 75 3.4 NW 7 11 4 6 1009.1 1008.8 0.0
03/06:30pm 29.4 33.0 24.4 74 3.5 NW 13 17 7 9 1008.7 1008.4 0.0
03/06:00pm 29.7 33.3 24.4 73 3.7 NW 13 15 7 8 1008.6 1008.3 0.0
03/05:30pm 30.0 32.6 24.6 73 3.8 WNW 19 24 10 13 1008.5 1008.2 0.0
03/05:00pm 30.4 33.6 24.4 70 4.2 NW 15 20 8 11 1008.4 1008.1 0.0
03/04:30pm 30.5 34.1 25.0 72 3.9 NW 15 19 8 10 1008.2 1007.9 0.0
03/04:00pm 31.1 33.9 23.6 64 5.2 NNW 15 19 8 10 1008.1 1007.8 0.0
03/03:30pm 30.7 33.8 24.1 68 4.6 NNW 15 19 8 10 1007.8 1007.5 0.0
03/03:00pm 30.7 32.8 23.8 66 4.8 NNW 19 24 10 13 1008.3 1008.0 0.0
03/02:30pm 31.9 33.9 22.2 56 6.6 N 15 22 8 12 1008.4 1008.1 0.0
03/02:00pm 32.7 34.3 22.8 56 6.8 N 19 24 10 13 1008.6 1008.3 0.0
03/01:30pm 32.2 34.6 23.6 60 6.0 NNW 17 20 9 11 1008.8 1008.5 0.0
03/01:00pm 32.9 36.4 23.6 58 6.5 NNE 11 20 6 11 1009.0 1008.7 0.0
03/12:30pm 33.0 36.6 24.3 60 6.1 NNE 13 20 7 11 1009.5 1009.2 0.0
03/12:00pm 32.2 36.1 23.6 60 6.0 NNE 9 17 5 9 1010.2 1009.9 0.0
03/11:30am 31.7 35.1 24.1 64 5.3 NE 13 22 7 12 1010.6 1010.3 0.0
03/11:00am 31.3 34.9 24.3 66 4.9 NNE 13 20 7 11 1010.6 1010.3 0.0
03/10:30am 31.0 35.2 24.7 69 4.4 N 11 15 6 8 1010.9 1010.6 0.0
03/10:00am 30.2 34.8 24.8 73 3.8 NNE 9 13 5 7 1011.3 1011.0 0.0
03/09:30am 29.7 34.5 24.4 73 3.7 ENE 7 15 4 8 1011.5 1011.2 0.0
03/09:00am 29.4 33.6 24.8 76 3.2 ESE 11 15 6 8 1010.9 1010.6 9.0
03/08:30am 28.6 31.1 23.8 75 3.3 E 17 19 9 10 1010.7 1010.4 -
03/08:00am 28.1 32.9 25.1 84 2.1 ESE 9 11 5 6 1010.5 1010.2 -
03/07:30am 27.8 33.1 24.9 84 2.0 ENE 6 7 3 4 1010.2 1009.9 -
03/07:00am 26.8 31.8 24.5 87 1.6 ENE 6 7 3 4 1009.6 1009.3 -
03/06:30am 26.3 31.6 24.9 92 1.0 ENE 6 9 3 5 1009.4 1009.1 -
03/06:00am 26.2 31.4 25.1 94 0.8 NE 7 11 4 6 1008.6 1008.3 -
03/05:30am 26.4 31.6 25.1 92 0.9 NE 7 11 4 6 1008.6 1008.3 0.0
03/05:00am 27.1 31.9 25.1 89 1.4 E 9 15 5 8 1008.9 1008.6 -
03/04:30am 26.8 32.4 24.8 89 1.4 NNE 4 7 2 4 1008.5 1008.2 -
03/04:00am 27.4 32.4 24.8 86 1.8 NNE 7 11 4 6 1008.4 1008.1 -
03/03:30am 27.2 32.3 24.9 87 1.6 NNE 7 11 4 6 1008.2 1007.9 -
03/03:00am 27.3 32.4 25.0 87 1.6 NNE 7 9 4 5 1008.5 1008.2 0.0
03/02:30am 27.5 32.6 24.9 86 1.8 NNE 7 9 4 5 1008.5 1008.2 -
03/02:00am 27.6 32.9 25.3 87 1.6 NNE 7 9 4 5 1008.7 1008.4 8.6
03/01:30am 27.7 33.0 25.3 87 1.7 NNE 7 11 4 6 1009.0 1008.7 8.6
03/01:00am 28.0 32.7 25.0 84 2.1 NNE 9 11 5 6 1009.3 1009.0 8.6
03/12:30am 28.4 32.4 25.0 82 2.4 NNE 13 17 7 9 1009.5 1009.2 8.6
03/12:00am 28.7 32.7 25.0 80 2.6 N 13 20 7 11 1009.4 1009.1 8.6
 
Date/Time
CST
Temp
°C
App
Temp
°C
Dew
Point
°C
Rel
Hum
%
Delta-T
°C
Wind Press
QNH
hPa
Press
MSL
hPa
Rain since
9am
mm
Dir  Spd
km/h
Gust
km/h
Spd
kts
Gust
kts
02/11:30pm 28.7 32.2 24.8 79 2.7 N 15 19 8 10 1009.2 1008.9 8.6
02/11:00pm 29.0 31.4 24.3 76 3.3 N 19 24 10 13 1009.5 1009.2 8.6
02/10:30pm 28.9 31.7 24.3 76 3.2 N 17 26 9 14 1009.6 1009.3 8.6
02/10:00pm 28.8 32.2 24.0 75 3.3 N 13 17 7 9 1009.6 1009.3 8.6
02/09:30pm 28.7 32.2 24.2 76 3.1 N 13 17 7 9 1009.4 1009.1 8.6
02/09:00pm 29.0 32.7 24.6 77 3.1 N 13 17 7 9 1009.1 1008.8 8.6
02/08:30pm 29.2 33.1 24.9 77 3.0 NNE 13 20 7 11 1008.7 1008.4 8.6
02/08:00pm 29.0 32.0 24.7 77 3.0 NNE 17 20 9 11 1008.2 1007.9 -
02/07:30pm 29.1 32.2 24.2 75 3.4 NNE 15 20 8 11 1007.7 1007.4 8.6
02/07:00pm 29.0 34.1 26.2 85 2.0 NE 11 13 6 7 1007.3 1007.0 8.6
02/06:30pm 29.5 34.6 25.5 79 2.8 NE 9 13 5 7 1007.0 1006.7 8.6
02/06:00pm 29.8 35.4 26.3 81 2.5 ENE 9 11 5 6 1006.8 1006.5 8.2
02/05:30pm 28.8 34.8 26.3 86 1.8 SE 7 11 4 6 1006.5 1006.2 8.6
02/05:15pm 28.0 32.0 26.2 90 1.3 SE 17 24 9 13 1006.5 1006.2 8.4
02/05:09pm 27.3 30.1 25.2 88 1.5 SE 20 24 11 13 1006.7 1006.4 7.8
02/05:00pm 28.0 33.3 25.2 85 2.0 WNW 7 22 4 12 1006.8 1006.5 5.4
02/04:54pm 28.5 33.2 24.3 78 2.9 NW 7 11 4 6 1006.8 1006.5 3.6
02/04:46pm 30.2 35.1 25.2 74 3.5 NW 9 15 5 8 1006.6 1006.3 -
02/04:41pm 32.7 36.0 23.2 57 6.6 NW 11 15 6 8 1006.6 1006.3 0.0
02/04:30pm 33.2 36.6 23.3 56 6.9 NNW 11 15 6 8 1006.5 1006.2 0.0
02/04:00pm 33.7 36.5 23.7 56 7.0 WNW 15 20 8 11 1006.9 1006.6 0.0
02/03:30pm 32.8 35.9 23.6 58 6.4 NNW 13 17 7 9 1007.1 1006.8 0.0
02/03:00pm 33.9 36.1 21.9 49 8.2 N 13 17 7 9 1007.1 1006.8 0.0
02/02:30pm 33.7 37.5 22.7 52 7.6 NNE 7 19 4 10 1007.3 1007.0 0.0
02/02:00pm 33.7 37.8 22.9 53 7.5 N 6 13 3 7 1007.5 1007.2 0.0
02/01:30pm 33.5 36.5 22.6 53 7.5 NNE 11 19 6 10 1007.9 1007.6 0.0
02/01:00pm 32.6 35.6 22.6 55 6.9 NNE 11 20 6 11 1008.4 1008.1 0.0
02/12:30pm 32.7 35.8 22.8 56 6.8 NNE 11 19 6 10 1008.7 1008.4 0.0
02/12:00pm 32.3 34.3 22.2 55 6.9 NNE 15 20 8 11 1009.3 1009.0 0.0
02/11:30am 31.2 34.4 23.1 62 5.6 NNE 11 20 6 11 1009.9 1009.6 0.0
02/11:00am 31.5 35.0 22.9 60 5.9 NNE 9 19 5 10 1010.2 1009.9 0.0
02/10:00am 30.6 33.1 22.4 61 5.6 ENE 13 26 7 14 1010.5 1010.2 0.0
02/09:30am 29.8 32.1 22.1 63 5.2 ENE 13 20 7 11 1010.0 1009.7 0.0
02/09:00am 28.8 29.6 21.8 66 4.7 ENE 20 24 11 13 1009.9 1009.6 0.0
02/08:30am 28.0 29.8 21.9 69 4.1 ENE 15 20 8 11 1009.9 1009.6 0.0
02/08:00am 27.0 28.7 21.6 72 3.6 ENE 15 19 8 10 1009.8 1009.5 0.0
02/07:30am 26.0 26.8 21.8 77 2.8 E 20 28 11 15 1010.1 1009.8 0.0
02/07:00am 25.5 26.0 21.9 80 2.4 E 22 28 12 15 1009.8 1009.5 0.0
02/06:30am 25.6 26.8 21.5 78 2.7 E 17 20 9 11 1009.7 1009.4 0.0
02/06:00am 25.7 26.9 21.5 77 2.8 ESE 17 22 9 12 1009.6 1009.3 0.0
02/05:30am 25.8 26.3 21.1 75 3.1 SE 20 30 11 16 1009.0 1008.7 0.0
02/05:00am 25.9 26.9 21.1 75 3.2 SE 17 24 9 13 1008.5 1008.2 0.0
02/04:30am 25.8 26.9 21.3 76 3.0 SE 17 20 9 11 1008.1 1007.8 0.0
02/04:00am 25.8 27.2 21.9 79 2.6 SE 17 22 9 12 1008.1 1007.8 0.0
02/03:30am 25.8 29.3 23.6 88 1.5 SE 11 15 6 8 1007.8 1007.5 0.0
02/03:00am 26.0 30.0 23.8 88 1.5 SSE 9 13 5 7 1008.0 1007.7 0.0
02/02:30am 26.4 29.3 24.4 89 1.4 SSE 17 20 9 11 1008.4 1008.1 0.0
02/02:00am 26.8 30.5 24.5 87 1.6 SSE 13 19 7 10 1008.2 1007.9 0.0
02/01:30am 27.1 33.4 24.7 87 1.7 CALM 0 2 0 1 1008.3 1008.0 0.0
02/01:00am 26.9 33.2 24.7 88 1.5 CALM 0 0 0 0 1008.5 1008.2 0.0
02/12:30am 27.0 33.1 25.0 89 1.4 NE 2 4 1 2 1009.0 1008.7 0.0
02/12:00am 27.3 32.9 24.9 87 1.7 E 4 4 2 2 1009.6 1009.3 0.0
 
Date/Time
CST
Temp
°C
App
Temp
°C
Dew
Point
°C
Rel
Hum
%
Delta-T
°C
Wind Press
QNH
hPa
Press
MSL
hPa
Rain since
9am
mm
Dir  Spd
km/h
Gust
km/h
Spd
kts
Gust
kts
01/11:30pm 27.2 32.6 24.5 85 1.9 N 4 6 2 3 1009.2 1008.9 0.0
01/11:00pm 27.7 32.5 24.1 81 2.5 NW 6 7 3 4 1009.0 1008.7 0.0
01/10:30pm 27.4 33.1 23.8 81 2.5 CALM 0 0 0 0 1009.0 1008.7 0.0
01/10:00pm 27.6 32.0 23.8 80 2.6 NNW 7 9 4 5 1008.4 1008.1 0.0
01/09:30pm 27.5 32.0 23.6 79 2.7 N 6 7 3 4 1007.6 1007.3 0.0
01/09:00pm 28.0 32.9 23.6 77 3.0 N 4 6 2 3 1007.4 1007.1 0.0
01/08:30pm 28.2 32.8 23.2 74 3.4 SSE 4 7 2 4 1007.3 1007.0 0.0
01/08:00pm 28.5 31.6 22.8 71 3.9 S 11 20 6 11 1007.3 1007.0 0.0
01/07:30pm 30.6 34.8 23.5 66 4.9 SW 7 7 4 4 1007.1 1006.8 0.0
01/07:00pm 30.9 35.9 23.9 66 4.9 WNW 4 6 2 3 1006.7 1006.4 0.0
01/06:30pm 31.6 36.1 23.7 63 5.5 NW 6 9 3 5 1006.1 1005.8 0.0
01/06:00pm 31.9 35.6 23.9 62 5.6 NW 11 13 6 7 1005.5 1005.2 0.0
01/05:30pm 32.3 35.9 23.7 60 6.0 NW 11 15 6 8 1005.3 1005.0 0.0
01/05:00pm 33.0 36.4 23.4 57 6.7 WNW 11 15 6 8 1005.0 1004.7 0.0
01/04:30pm 32.4 35.4 24.0 61 5.9 WNW 15 19 8 10 1005.0 1004.7 0.0
01/04:00pm 32.9 34.7 23.6 58 6.5 WNW 20 26 11 14 1005.4 1005.1 0.0
01/03:30pm 33.1 35.0 23.8 58 6.5 WNW 20 26 11 14 1006.1 1005.8 0.0
01/03:00pm 33.3 35.3 24.0 58 6.5 WNW 20 24 11 13 1006.5 1006.2 0.0
01/02:30pm 32.8 35.4 24.6 62 5.8 WNW 19 24 10 13 1007.0 1006.7 0.0
01/02:00pm 32.8 35.7 25.4 65 5.3 NW 20 26 11 14 1007.0 1006.7 0.0
01/01:30pm 32.8 35.8 24.6 62 5.8 WNW 17 22 9 12 1007.0 1006.7 0.0
01/01:00pm 32.7 35.9 25.5 66 5.1 WNW 19 24 10 13 1007.4 1007.1 0.0
01/12:30pm 32.2 35.9 25.1 66 5.0 NW 15 20 8 11 1007.9 1007.6 0.0
01/12:00pm 32.3 36.9 25.3 66 5.0 WNW 11 20 6 11 1008.5 1008.2 0.0
01/11:30am 31.6 36.0 25.1 68 4.6 NNW 11 17 6 9 1008.8 1008.5 0.0

Other Formats:

Comma delimited format used in spreadsheet applications
http://www.bom.gov.au/fwo/IDD60801/IDD60801.94120.axf

JavaScript Object Notation format (JSON) in row-major order
http://www.bom.gov.au/fwo/IDD60801/IDD60801.94120.json